LAN186 SCEL-SCAR
Flight info
| Callsign | LAN186 |
|---|---|
| Flight time | N/A |
| Altitude | 34000 |
| Route | DONTI5B DONTI UQ802 SIRAM SIRAM2B |
| Aircraft | A321/M-SDE3FGHIRWY/LB1 |
Departure
| Time | N/A |
|---|---|
| Airport | Comodoro Arturo Merino Benítez International Airport (SCEL) |
Arrival
| Time | 2026-05-04 17:03 |
|---|---|
| Airport | Chacalluta International Airport (SCAR) |
| Time | Latitude | Longitude | Altitude | Speed | Heading |
|---|---|---|---|---|---|
| 2026-05-04 16:53 | -18.94682 | -70.49123 | 10535 ft | 323 kts | 31° |
| 2026-05-04 16:54 | -18.92654 | -70.48211 | 10418 ft | 313 kts | 13° |
| 2026-05-04 16:55 | -18.84257 | -70.46563 | 9779 ft | 307 kts | 11° |
| 2026-05-04 16:55 | -18.80061 | -70.45765 | 8963 ft | 304 kts | 11° |
| 2026-05-04 16:56 | -18.75956 | -70.44980 | 8258 ft | 299 kts | 11° |
| 2026-05-04 16:56 | -18.69927 | -70.43818 | 7218 ft | 288 kts | 9° |
| 2026-05-04 16:57 | -18.67962 | -70.43441 | 6701 ft | 285 kts | 9° |
| 2026-05-04 16:57 | -18.64093 | -70.42698 | 5738 ft | 276 kts | 9° |
| 2026-05-04 16:58 | -18.58670 | -70.41658 | 4655 ft | 251 kts | 9° |
| 2026-05-04 16:58 | -18.57004 | -70.41339 | 4342 ft | 234 kts | 9° |
| 2026-05-04 16:59 | -18.53955 | -70.40756 | 3738 ft | 215 kts | 10° |
| 2026-05-04 17:00 | -18.48516 | -70.38876 | 2642 ft | 190 kts | 19° |
| 2026-05-04 17:00 | -18.45011 | -70.37595 | 1959 ft | 165 kts | 18° |
| 2026-05-04 17:01 | -18.42976 | -70.36846 | 1523 ft | 151 kts | 18° |
| 2026-05-04 17:01 | -18.40995 | -70.36122 | 1132 ft | 151 kts | 18° |
| 2026-05-04 17:02 | -18.38957 | -70.35376 | 716 ft | 156 kts | 17° |
| 2026-05-04 17:02 | -18.36908 | -70.34632 | 334 ft | 156 kts | 18° |
| 2026-05-04 17:03 | -18.35883 | -70.34254 | 189 ft | 155 kts | 17° |
| 2026-05-04 17:03 | -18.34894 | -70.33894 | 153 ft | 140 kts | 19° |
| 2026-05-04 17:03 | -18.34036 | -70.33579 | 173 ft | 16 kts | 19° |
| 2026-05-04 17:04 | -18.33963 | -70.33469 | 174 ft | 8 kts | 110° |
| 2026-05-04 17:04 | -18.34052 | -70.33409 | 174 ft | 15 kts | 178° |
| 2026-05-04 17:05 | -18.34295 | -70.33494 | 167 ft | 20 kts | 201° |
| 2026-05-04 17:05 | -18.34565 | -70.33592 | 161 ft | 21 kts | 199° |
| 2026-05-04 17:06 | -18.34839 | -70.33691 | 155 ft | 16 kts | 198° |
| 2026-05-04 17:06 | -18.34897 | -70.33701 | 155 ft | 3 kts | 138° |
| 2026-05-04 17:07 | -18.34916 | -70.33656 | 155 ft | 8 kts | 110° |
| 2026-05-04 17:07 | -18.34920 | -70.33643 | 155 ft | 0 kts | 109° |
| 2026-05-04 17:07 | -18.34920 | -70.33641 | 155 ft | 0 kts | 110° |